createdAt,value
2022-10-05T00:00:25.319Z,13.83
2022-10-05T00:01:25.409Z,13.83
2022-10-05T00:02:25.442Z,13.87
2022-10-05T00:03:25.418Z,13.84
2022-10-05T00:04:25.454Z,13.94
2022-10-05T00:05:25.568Z,13.83
2022-10-05T00:06:25.518Z,13.88
2022-10-05T00:07:25.549Z,13.88
2022-10-05T00:08:25.587Z,13.94
2022-10-05T00:09:25.615Z,13.88
2022-10-05T00:10:25.652Z,13.96
2022-10-05T00:11:25.682Z,13.90
2022-10-05T00:12:25.752Z,13.96
2022-10-05T00:13:25.748Z,13.87
2022-10-05T00:14:25.780Z,13.88
2022-10-05T00:15:25.812Z,13.91
2022-10-05T00:16:25.870Z,13.86
2022-10-05T00:17:25.887Z,13.81
2022-10-05T00:18:25.912Z,13.79
2022-10-05T00:19:25.944Z,13.65
2022-10-05T00:20:25.977Z,13.71
2022-10-05T00:21:26.017Z,13.72
2022-10-05T00:22:26.044Z,13.72
2022-10-05T00:23:26.079Z,13.79
2022-10-05T00:24:26.111Z,13.81
2022-10-05T00:25:26.143Z,13.81
2022-10-05T00:26:26.176Z,13.81
2022-10-05T00:27:26.207Z,13.76
2022-10-05T00:28:26.300Z,13.86
2022-10-05T00:29:26.272Z,13.76
2022-10-05T00:30:26.307Z,13.81
2022-10-05T00:31:26.391Z,13.75
2022-10-05T00:32:26.374Z,13.79
2022-10-05T00:33:26.406Z,13.76
2022-10-05T00:34:26.441Z,13.80
2022-10-05T00:35:26.471Z,13.69
2022-10-05T00:36:26.504Z,13.75
2022-10-05T00:37:26.537Z,13.83
2022-10-05T00:38:26.570Z,13.76
2022-10-05T00:39:26.602Z,13.72
2022-10-05T00:40:26.636Z,13.75
2022-10-05T00:41:26.670Z,13.75
2022-10-05T00:42:26.703Z,13.76
2022-10-05T00:43:26.733Z,13.79
2022-10-05T00:44:26.770Z,13.66
2022-10-05T00:45:26.840Z,13.73
2022-10-05T00:46:26.835Z,13.79
2022-10-05T00:47:26.866Z,13.62
2022-10-05T00:48:26.898Z,13.61
2022-10-05T00:49:26.930Z,13.63
2022-10-05T00:50:26.967Z,13.63
2022-10-05T00:51:26.995Z,13.57
2022-10-05T00:52:27.030Z,13.55
2022-10-05T00:53:27.064Z,13.57
2022-10-05T00:54:27.096Z,13.59
2022-10-05T00:55:27.127Z,13.50
2022-10-05T00:56:27.161Z,13.44
2022-10-05T00:57:27.194Z,13.46
2022-10-05T00:58:27.234Z,13.55
2022-10-05T00:59:27.262Z,13.47
2022-10-05T01:00:27.299Z,13.38
2022-10-05T01:01:27.387Z,13.41
2022-10-05T01:02:27.454Z,13.39
2022-10-05T01:03:27.395Z,13.43
2022-10-05T01:04:27.425Z,13.39
2022-10-05T01:05:27.461Z,13.39
2022-10-05T01:06:27.491Z,13.38
2022-10-05T01:07:27.521Z,13.44
2022-10-05T01:08:27.560Z,13.41
2022-10-05T01:09:27.586Z,13.41
2022-10-05T01:10:27.619Z,13.38
2022-10-05T01:11:27.659Z,13.36
2022-10-05T01:12:27.686Z,13.27
2022-10-05T01:13:27.719Z,13.38
2022-10-05T01:14:27.751Z,13.44
2022-10-05T01:15:27.782Z,13.39
2022-10-05T01:16:27.834Z,13.36
2022-10-05T01:17:27.853Z,13.28
2022-10-05T01:18:27.883Z,13.27
2022-10-05T01:19:27.929Z,13.24
2022-10-05T01:20:27.975Z,13.17
2022-10-05T01:21:27.978Z,13.28
2022-10-05T01:22:28.013Z,13.29
2022-10-05T01:23:28.043Z,13.29
2022-10-05T01:24:28.077Z,13.22
2022-10-05T01:25:28.110Z,13.32
2022-10-05T01:26:28.142Z,13.22
2022-10-05T01:27:28.172Z,13.28
2022-10-05T01:28:28.281Z,13.22
2022-10-05T01:29:28.240Z,13.25
2022-10-05T01:30:28.276Z,13.16
2022-10-05T01:31:28.355Z,13.25
2022-10-05T01:32:28.353Z,13.21
2022-10-05T01:33:28.369Z,13.19
2022-10-05T01:34:28.403Z,13.25
2022-10-05T01:35:28.436Z,13.14
2022-10-05T01:36:28.473Z,13.27
2022-10-05T01:37:28.501Z,13.27
2022-10-05T01:38:28.535Z,13.24
2022-10-05T01:39:28.566Z,13.22
2022-10-05T01:40:28.599Z,13.22
2022-10-05T01:41:28.630Z,13.28
2022-10-05T01:42:28.665Z,13.29
2022-10-05T01:43:28.699Z,13.27
2022-10-05T01:44:28.736Z,13.27
2022-10-05T01:45:28.793Z,13.25
2022-10-05T01:46:28.796Z,13.35
2022-10-05T01:47:28.825Z,13.17
2022-10-05T01:48:28.864Z,13.21
2022-10-05T01:49:28.894Z,13.24
2022-10-05T01:50:28.928Z,13.31
2022-10-05T01:51:28.956Z,13.31
2022-10-05T01:52:28.993Z,13.28
2022-10-05T01:53:29.021Z,13.27
2022-10-05T01:54:29.055Z,13.29
2022-10-05T01:55:29.085Z,13.25
2022-10-05T01:56:29.118Z,13.31
2022-10-05T01:57:29.152Z,13.25
2022-10-05T01:58:29.184Z,13.22
2022-10-05T01:59:29.230Z,13.12
2022-10-05T02:00:29.249Z,13.25
2022-10-05T02:01:29.321Z,13.22
2022-10-05T02:02:29.357Z,13.27
2022-10-05T02:03:29.346Z,13.29
2022-10-05T02:04:59.932Z,13.31
2022-10-05T02:05:29.411Z,13.21
2022-10-05T02:06:29.446Z,13.25
2022-10-05T02:07:29.476Z,13.25
2022-10-05T02:08:29.509Z,13.04
2022-10-05T02:09:29.541Z,13.03
2022-10-05T02:10:29.575Z,13.06
2022-10-05T02:11:29.606Z,13.04
2022-10-05T02:12:29.642Z,13.10
2022-10-05T02:13:29.671Z,13.13
2022-10-05T02:14:29.707Z,13.03
2022-10-05T02:15:29.823Z,13.13
2022-10-05T02:16:29.769Z,13.10
2022-10-05T02:17:29.801Z,13.16
2022-10-05T02:18:29.840Z,13.09
2022-10-05T02:19:29.865Z,13.13
2022-10-05T02:20:29.899Z,13.13
2022-10-05T02:21:29.932Z,13.04
2022-10-05T02:22:29.970Z,13.17
2022-10-05T02:23:29.996Z,13.14
2022-10-05T02:24:30.029Z,13.13
2022-10-05T02:25:30.066Z,13.12
2022-10-05T02:26:30.105Z,13.09
2022-10-05T02:27:30.133Z,13.17
2022-10-05T02:28:30.243Z,13.04
2022-10-05T02:29:30.192Z,13.01
2022-10-05T02:30:30.225Z,13.07
2022-10-05T02:31:30.327Z,13.06
2022-10-05T02:32:30.292Z,13.07
2022-10-05T02:33:30.329Z,13.09
2022-10-05T02:34:30.357Z,13.06
2022-10-05T02:35:30.386Z,13.09
2022-10-05T02:36:30.424Z,13.12
2022-10-05T02:37:30.452Z,13.04
2022-10-05T02:38:30.488Z,13.06
2022-10-05T02:39:30.516Z,13.07
2022-10-05T02:40:30.552Z,13.12
2022-10-05T02:41:30.580Z,13.04
2022-10-05T02:42:30.614Z,13.09
2022-10-05T02:43:30.645Z,13.10
2022-10-05T02:44:30.680Z,13.10
2022-10-05T02:45:30.778Z,13.04
2022-10-05T02:46:30.748Z,13.10
2022-10-05T02:47:30.775Z,13.12
2022-10-05T02:48:30.812Z,13.07
2022-10-05T02:49:30.841Z,13.07
2022-10-05T02:50:30.874Z,12.95
2022-10-05T02:51:30.911Z,12.94
2022-10-05T02:52:31.002Z,12.95
2022-10-05T02:53:30.975Z,12.91
2022-10-05T02:54:31.004Z,12.96
2022-10-05T02:55:31.035Z,12.94
2022-10-05T02:56:31.068Z,12.95
2022-10-05T02:57:31.103Z,12.91
2022-10-05T02:58:31.141Z,12.95
2022-10-05T02:59:31.165Z,12.95
2022-10-05T03:00:31.196Z,12.94
2022-10-05T03:01:31.287Z,12.96
2022-10-05T03:02:31.289Z,12.92
2022-10-05T03:03:31.299Z,12.95
2022-10-05T03:04:31.327Z,12.94
2022-10-05T03:05:31.361Z,12.91
2022-10-05T03:06:31.394Z,12.95
2022-10-05T03:07:31.462Z,12.94
2022-10-05T03:08:31.458Z,12.84
2022-10-05T03:09:31.489Z,12.88
2022-10-05T03:10:31.524Z,12.87
2022-10-05T03:11:31.570Z,12.92
2022-10-05T03:12:31.587Z,12.92
2022-10-05T03:13:31.621Z,12.94
2022-10-05T03:14:31.653Z,12.94
2022-10-05T03:15:31.684Z,12.89
2022-10-05T03:16:31.778Z,12.96
2022-10-05T03:17:31.748Z,12.89
2022-10-05T03:18:31.782Z,12.74
2022-10-05T03:19:31.811Z,12.80
2022-10-05T03:20:31.847Z,12.89
2022-10-05T03:21:31.879Z,12.89
2022-10-05T03:22:31.912Z,12.95
2022-10-05T03:23:31.941Z,12.77
2022-10-05T03:24:31.976Z,12.95
2022-10-05T03:25:32.006Z,12.92
2022-10-05T03:26:32.041Z,12.88
2022-10-05T03:27:32.076Z,12.87
2022-10-05T03:28:32.126Z,12.85
2022-10-05T03:29:32.136Z,12.94
2022-10-05T03:30:32.170Z,12.89
2022-10-05T03:31:32.230Z,12.79
2022-10-05T03:32:32.232Z,12.77
2022-10-05T03:33:32.266Z,12.76
2022-10-05T03:34:32.307Z,12.79
2022-10-05T03:35:32.328Z,12.69
2022-10-05T03:36:32.363Z,12.74
2022-10-05T03:37:32.396Z,12.70
2022-10-05T03:38:32.427Z,12.73
2022-10-05T03:39:32.460Z,12.67
2022-10-05T03:40:32.495Z,12.70
2022-10-05T03:41:32.534Z,12.69
2022-10-05T03:42:32.558Z,12.71
2022-10-05T03:43:32.588Z,12.77
2022-10-05T03:44:32.623Z,12.70
2022-10-05T03:45:32.653Z,12.69
2022-10-05T03:46:32.825Z,12.69
2022-10-05T03:47:32.716Z,12.73
2022-10-05T03:48:32.762Z,12.67
2022-10-05T03:49:32.781Z,12.80
2022-10-05T03:50:32.816Z,12.76
2022-10-05T03:51:32.851Z,12.76
2022-10-05T03:52:32.881Z,12.69
2022-10-05T03:53:32.912Z,12.76
2022-10-05T03:54:32.944Z,12.77
2022-10-05T03:55:32.976Z,12.73
2022-10-05T03:56:33.013Z,12.76
2022-10-05T03:57:33.039Z,12.73
2022-10-05T03:58:33.072Z,12.63
2022-10-05T03:59:33.104Z,12.66
2022-10-05T04:00:33.138Z,12.74
2022-10-05T04:01:33.198Z,12.74
2022-10-05T04:02:33.257Z,12.74
2022-10-05T04:03:33.231Z,12.79
2022-10-05T04:04:33.267Z,12.76
2022-10-05T04:05:33.299Z,12.74
2022-10-05T04:06:33.333Z,12.74
2022-10-05T04:07:33.362Z,12.77
2022-10-05T04:08:33.396Z,12.76
2022-10-05T04:09:33.425Z,12.84
2022-10-05T04:10:33.460Z,12.89
2022-10-05T04:11:33.490Z,12.70
2022-10-05T04:12:33.559Z,12.91
2022-10-05T04:13:33.558Z,12.88
2022-10-05T04:14:33.588Z,12.88
2022-10-05T04:15:33.646Z,12.87
2022-10-05T04:16:33.657Z,12.81
2022-10-05T04:17:33.689Z,12.79
2022-10-05T04:18:33.718Z,12.77
2022-10-05T04:19:33.750Z,12.85
2022-10-05T04:20:33.780Z,12.71
2022-10-05T04:21:33.812Z,12.74
2022-10-05T04:22:33.845Z,12.76
2022-10-05T04:23:33.877Z,12.77
2022-10-05T04:24:33.909Z,12.73
2022-10-05T04:25:33.943Z,12.76
2022-10-05T04:26:33.974Z,12.73
2022-10-05T04:27:34.007Z,12.76
2022-10-05T04:28:34.081Z,12.87
2022-10-05T04:29:34.071Z,12.74
2022-10-05T04:30:34.103Z,12.87
2022-10-05T04:31:34.211Z,12.77
2022-10-05T04:32:34.167Z,12.76
2022-10-05T04:33:34.199Z,12.73
2022-10-05T04:34:34.231Z,12.79
2022-10-05T04:35:34.265Z,12.77
2022-10-05T04:36:34.296Z,12.77
2022-10-05T04:37:34.329Z,12.71
2022-10-05T04:38:34.361Z,12.76
2022-10-05T04:39:34.397Z,12.71
2022-10-05T04:40:34.425Z,12.69
2022-10-05T04:41:34.458Z,12.74
2022-10-05T04:42:34.493Z,12.71
2022-10-05T04:43:34.522Z,12.77
2022-10-05T04:44:34.558Z,12.76
2022-10-05T04:45:34.587Z,12.73
2022-10-05T04:46:34.678Z,12.76
2022-10-05T04:47:34.652Z,12.84
2022-10-05T04:48:34.682Z,12.77
2022-10-05T04:49:34.714Z,12.74
2022-10-05T04:50:34.749Z,12.77
2022-10-05T04:51:34.781Z,12.87
2022-10-05T04:52:34.813Z,12.84
2022-10-05T04:53:34.848Z,12.77
2022-10-05T04:54:34.886Z,12.71
2022-10-05T04:55:34.909Z,12.77
2022-10-05T04:56:34.939Z,12.73
2022-10-05T04:57:34.977Z,12.79
2022-10-05T04:58:37.813Z,12.73
2022-10-05T04:59:35.036Z,12.79
2022-10-05T05:00:35.146Z,12.77
2022-10-05T05:01:35.115Z,12.89
2022-10-05T05:02:35.140Z,12.74
2022-10-05T05:03:35.203Z,12.79
2022-10-05T05:04:35.198Z,12.89
2022-10-05T05:05:35.231Z,12.73
2022-10-05T05:06:35.262Z,12.79
2022-10-05T05:07:35.300Z,12.74
2022-10-05T05:08:35.326Z,12.69
2022-10-05T05:09:35.362Z,12.74
2022-10-05T05:10:35.392Z,12.74
2022-10-05T05:11:35.425Z,12.76
2022-10-05T05:12:35.455Z,12.71
2022-10-05T05:13:35.487Z,12.73
2022-10-05T05:14:35.523Z,12.74
2022-10-05T05:15:35.555Z,12.77
2022-10-05T05:16:35.720Z,12.77
2022-10-05T05:17:35.616Z,12.71
2022-10-05T05:18:35.650Z,12.76
2022-10-05T05:19:35.681Z,12.76
2022-10-05T05:20:35.715Z,12.76
2022-10-05T05:21:35.747Z,12.67
2022-10-05T05:22:35.776Z,12.74
2022-10-05T05:23:35.877Z,12.79
2022-10-05T05:24:35.842Z,12.70
2022-10-05T05:25:35.874Z,12.77
2022-10-05T05:26:39.014Z,12.74
2022-10-05T05:27:35.941Z,12.77
2022-10-05T05:28:36.065Z,12.84
2022-10-05T05:29:36.004Z,12.76
2022-10-05T05:30:36.036Z,12.87
2022-10-05T05:31:36.148Z,12.76
2022-10-05T05:32:36.101Z,12.74
2022-10-05T05:33:36.132Z,12.76
2022-10-05T05:34:36.167Z,12.73
2022-10-05T05:35:36.196Z,12.70
2022-10-05T05:36:36.229Z,12.74
2022-10-05T05:37:36.263Z,12.74
2022-10-05T05:38:36.295Z,12.69
2022-10-05T05:39:36.326Z,12.71
2022-10-05T05:40:36.359Z,12.71
2022-10-05T05:41:36.392Z,12.76
2022-10-05T05:42:36.427Z,12.76
2022-10-05T05:43:36.454Z,12.76
2022-10-05T05:44:38.765Z,12.76
2022-10-05T05:45:36.519Z,12.73
2022-10-05T05:47:01.620Z,12.80
2022-10-05T05:47:36.624Z,12.69
2022-10-05T05:48:36.738Z,12.74
2022-10-05T05:49:36.649Z,12.74
2022-10-05T05:50:36.682Z,12.76
2022-10-05T05:51:36.713Z,12.71
2022-10-05T05:52:36.743Z,12.76
2022-10-05T05:53:36.783Z,12.80
2022-10-05T05:54:36.810Z,12.74
2022-10-05T05:55:36.847Z,12.79
2022-10-05T05:56:36.874Z,12.74
2022-10-05T05:57:36.908Z,12.79
2022-10-05T05:58:36.935Z,12.77
2022-10-05T05:59:36.980Z,12.71
2022-10-05T06:00:37.001Z,12.76
2022-10-05T06:01:40.703Z,12.77
2022-10-05T06:02:37.185Z,12.74
2022-10-05T06:03:37.099Z,12.91
2022-10-05T06:04:37.132Z,12.89
2022-10-05T06:05:37.165Z,12.74
2022-10-05T06:06:37.194Z,12.77
2022-10-05T06:07:37.228Z,12.87
2022-10-05T06:08:37.259Z,12.76
2022-10-05T06:09:37.293Z,12.87
2022-10-05T06:10:37.325Z,12.84
2022-10-05T06:11:37.356Z,12.88
2022-10-05T06:12:37.387Z,12.81
2022-10-05T06:13:37.422Z,12.76
2022-10-05T06:14:37.453Z,12.88
2022-10-05T06:15:37.484Z,12.88
2022-10-05T06:16:37.622Z,12.88
2022-10-05T06:17:37.550Z,12.85
2022-10-05T06:18:37.587Z,12.88
2022-10-05T06:19:37.614Z,12.79
2022-10-05T06:20:37.656Z,12.84
2022-10-05T06:21:37.680Z,12.92
2022-10-05T06:22:37.709Z,12.87
2022-10-05T06:23:37.744Z,12.95
2022-10-05T06:24:37.775Z,12.87
2022-10-05T06:25:37.808Z,12.77
2022-10-05T06:26:37.838Z,12.81
2022-10-05T06:27:37.874Z,12.92
2022-10-05T06:28:38.001Z,12.91
2022-10-05T06:29:37.937Z,12.92
2022-10-05T06:30:38.032Z,12.89
2022-10-05T06:31:38.059Z,12.94
2022-10-05T06:32:38.031Z,12.88
2022-10-05T06:33:38.068Z,12.96
2022-10-05T06:34:38.095Z,12.91
2022-10-05T06:35:38.128Z,12.92
2022-10-05T06:36:38.163Z,13.06
2022-10-05T06:37:38.216Z,13.10
2022-10-05T06:38:38.241Z,13.07
2022-10-05T06:39:38.256Z,13.06
2022-10-05T06:40:38.289Z,13.13
2022-10-05T06:41:38.379Z,13.06
2022-10-05T06:42:38.366Z,13.10
2022-10-05T06:43:38.388Z,13.13
2022-10-05T06:44:38.420Z,13.14
2022-10-05T06:45:38.559Z,13.17
2022-10-05T06:46:38.486Z,13.14
2022-10-05T06:47:38.537Z,13.17
2022-10-05T06:48:38.550Z,13.25
2022-10-05T06:49:38.581Z,13.24
2022-10-05T06:50:38.613Z,13.27
2022-10-05T06:51:38.655Z,13.25
2022-10-05T06:52:38.683Z,13.25
2022-10-05T06:53:38.711Z,13.29
2022-10-05T06:54:38.742Z,13.27
2022-10-05T06:55:38.780Z,13.31
2022-10-05T06:56:38.807Z,13.31
2022-10-05T06:57:38.841Z,13.32
2022-10-05T06:58:38.871Z,13.28
2022-10-05T06:59:38.906Z,13.35
2022-10-05T07:00:38.937Z,13.35
2022-10-05T07:01:39.179Z,13.38
2022-10-05T07:02:39.121Z,13.41
2022-10-05T07:03:39.033Z,13.35
2022-10-05T07:04:39.067Z,13.36
2022-10-05T07:05:39.100Z,13.35
2022-10-05T07:06:39.136Z,13.43
2022-10-05T07:07:39.169Z,13.39
2022-10-05T07:08:39.197Z,13.36
2022-10-05T07:09:39.314Z,13.39
2022-10-05T07:10:39.265Z,13.39
2022-10-05T07:11:39.295Z,13.43
2022-10-05T07:12:39.330Z,13.38
2022-10-05T07:13:39.363Z,13.35
2022-10-05T07:14:39.403Z,13.48
2022-10-05T07:15:39.425Z,13.46
2022-10-05T07:16:39.511Z,13.48
2022-10-05T07:17:39.490Z,13.51
2022-10-05T07:18:39.526Z,13.57
2022-10-05T07:19:39.555Z,13.61
2022-10-05T07:20:39.588Z,13.50
2022-10-05T07:21:39.631Z,13.50
2022-10-05T07:22:39.658Z,13.55
2022-10-05T07:23:39.685Z,13.48
2022-10-05T07:24:39.717Z,13.51
2022-10-05T07:25:39.753Z,13.53
2022-10-05T07:26:39.786Z,13.63
2022-10-05T07:27:39.816Z,13.55
2022-10-05T07:28:39.959Z,13.61
2022-10-05T07:29:39.882Z,13.63
2022-10-05T07:30:39.943Z,13.59
2022-10-05T07:31:39.945Z,13.63
2022-10-05T07:32:39.977Z,13.66
2022-10-05T07:33:40.016Z,13.72
2022-10-05T07:34:40.044Z,13.66
2022-10-05T07:35:40.077Z,13.72
2022-10-05T07:36:40.108Z,13.75
2022-10-05T07:37:40.162Z,13.83
2022-10-05T07:38:40.174Z,13.86
2022-10-05T07:39:59.767Z,13.81
2022-10-05T07:40:40.244Z,13.84
2022-10-05T07:41:40.271Z,13.86
2022-10-05T07:42:47.335Z,13.88
2022-10-05T07:44:00.979Z,13.91
2022-10-05T07:44:40.376Z,14.04
2022-10-05T07:45:40.436Z,14.04
2022-10-05T07:46:40.437Z,13.94
2022-10-05T07:47:40.470Z,13.98
2022-10-05T07:48:40.508Z,13.98
2022-10-05T07:49:40.535Z,13.96
2022-10-05T07:50:40.569Z,14.05
2022-10-05T07:51:40.599Z,14.09
2022-10-05T07:52:40.634Z,14.11
2022-10-05T07:53:40.665Z,14.01
2022-10-05T07:54:40.699Z,13.99
2022-10-05T07:55:40.730Z,14.05
2022-10-05T07:56:40.816Z,14.09
2022-10-05T07:57:40.805Z,14.06
2022-10-05T07:58:40.830Z,14.21
2022-10-05T07:59:40.861Z,14.16
2022-10-05T08:00:40.899Z,14.26
2022-10-05T08:01:40.990Z,14.27
2022-10-05T08:02:41.016Z,14.27
2022-10-05T08:03:40.993Z,14.29
2022-10-05T08:04:42.005Z,14.24
2022-10-05T08:05:41.066Z,14.29
2022-10-05T08:06:41.096Z,14.27
2022-10-05T08:07:41.125Z,14.31
2022-10-05T08:08:41.157Z,14.30
2022-10-05T08:09:41.191Z,14.31
2022-10-05T08:10:41.223Z,14.34
2022-10-05T08:11:41.257Z,14.38
2022-10-05T08:12:41.289Z,14.34
2022-10-05T08:13:41.322Z,14.35
2022-10-05T08:14:41.354Z,14.31
2022-10-05T08:15:41.440Z,14.31
2022-10-05T08:16:41.422Z,14.42
2022-10-05T08:17:41.465Z,14.44
2022-10-05T08:18:41.487Z,14.45
2022-10-05T08:19:41.519Z,14.45
2022-10-05T08:20:41.561Z,14.52
2022-10-05T08:21:41.587Z,14.59
2022-10-05T08:22:41.620Z,14.59
2022-10-05T08:23:41.653Z,14.57
2022-10-05T08:24:41.686Z,14.57
2022-10-05T08:25:41.717Z,14.57
2022-10-05T08:26:41.753Z,14.61
2022-10-05T08:27:41.783Z,14.61
2022-10-05T08:28:41.822Z,14.71
2022-10-05T08:29:41.849Z,14.72
2022-10-05T08:30:41.884Z,14.74
2022-10-05T08:31:49.714Z,14.79
2022-10-05T08:33:46.010Z,14.86
2022-10-05T08:34:46.008Z,15.00
2022-10-05T08:36:39.275Z,14.91
2022-10-05T08:37:39.225Z,15.07
2022-10-05T08:39:32.398Z,15.11
2022-10-05T08:40:32.391Z,15.05
2022-10-05T08:42:25.585Z,15.01
2022-10-05T08:43:25.578Z,15.15
2022-10-05T08:45:18.849Z,15.16
2022-10-05T08:46:18.890Z,15.22
2022-10-05T08:48:22.851Z,15.41
2022-10-05T08:49:22.876Z,15.40
2022-10-05T08:51:26.985Z,15.46
2022-10-05T08:52:26.971Z,15.59
2022-10-05T08:54:31.046Z,15.64
2022-10-05T08:55:31.073Z,15.74
2022-10-05T08:57:24.280Z,15.77
2022-10-05T08:58:24.271Z,15.77
2022-10-05T09:00:17.464Z,15.76
2022-10-05T09:01:17.514Z,15.77
2022-10-05T09:03:10.684Z,15.76
2022-10-05T09:04:10.681Z,15.77
2022-10-05T09:06:03.706Z,15.74
2022-10-05T09:07:03.691Z,15.71
2022-10-05T09:09:07.763Z,15.67
2022-10-05T09:10:07.788Z,15.66
2022-10-05T09:12:00.993Z,15.68
2022-10-05T09:13:00.981Z,15.71
2022-10-05T09:15:24.807Z,15.70
2022-10-05T09:16:05.108Z,15.71
2022-10-05T09:17:58.248Z,15.76
2022-10-05T09:18:58.251Z,15.80
2022-10-05T09:21:02.333Z,15.84
2022-10-05T09:22:02.335Z,15.91
2022-10-05T09:23:55.541Z,15.85
2022-10-05T09:24:55.548Z,15.88
2022-10-05T09:26:59.592Z,15.91
2022-10-05T09:27:59.662Z,15.88
2022-10-05T09:30:03.671Z,15.88
2022-10-05T09:31:03.772Z,15.86
2022-10-05T09:33:07.783Z,15.89
2022-10-05T09:34:07.816Z,15.86
2022-10-05T09:36:00.830Z,15.93
2022-10-05T09:37:00.821Z,16.01
2022-10-05T09:39:04.981Z,16.10
2022-10-05T09:40:04.922Z,15.92
2022-10-05T09:42:09.055Z,16.03
2022-10-05T09:43:09.049Z,16.11
2022-10-05T09:45:02.251Z,16.13
2022-10-05T09:46:02.263Z,16.17
2022-10-05T09:47:55.413Z,16.13
2022-10-05T09:48:55.562Z,16.17
2022-10-05T09:50:48.650Z,16.32
2022-10-05T09:51:48.966Z,16.34
2022-10-05T09:53:41.807Z,16.44
2022-10-05T09:54:41.834Z,16.51
2022-10-05T09:56:35.055Z,16.70
2022-10-05T09:57:34.857Z,16.70
2022-10-05T09:59:38.938Z,16.90
2022-10-05T10:00:38.962Z,16.92
2022-10-05T10:02:32.267Z,17.00
2022-10-05T10:03:32.225Z,17.07
2022-10-05T10:05:36.264Z,17.22
2022-10-05T10:06:36.286Z,17.07
2022-10-05T10:07:36.320Z,17.09
2022-10-05T10:08:36.373Z,17.12
2022-10-05T10:09:38.686Z,17.10
2022-10-05T10:10:36.434Z,17.18
2022-10-05T10:11:36.453Z,17.25
2022-10-05T10:12:36.488Z,17.24
2022-10-05T10:13:36.523Z,17.33
2022-10-05T10:14:36.558Z,17.62
2022-10-05T10:15:36.629Z,17.83
2022-10-05T10:16:36.630Z,18.09
2022-10-05T10:17:36.661Z,18.31
2022-10-05T10:18:36.696Z,18.41
2022-10-05T10:19:36.731Z,18.49
2022-10-05T10:20:36.770Z,18.60
2022-10-05T10:21:36.802Z,18.75
2022-10-05T10:22:42.221Z,18.72
2022-10-05T10:23:36.878Z,18.96
2022-10-05T10:24:36.912Z,19.05
2022-10-05T10:25:36.940Z,19.06
2022-10-05T10:26:37.010Z,19.10
2022-10-05T10:27:37.012Z,19.12
2022-10-05T10:28:37.113Z,19.09
2022-10-05T10:29:37.082Z,19.12
2022-10-05T10:30:37.117Z,19.16
2022-10-05T10:31:37.153Z,19.27
2022-10-05T10:32:37.188Z,19.45
2022-10-05T10:33:37.225Z,19.65
2022-10-05T10:34:37.259Z,19.65
2022-10-05T10:35:37.291Z,19.78
2022-10-05T10:36:37.341Z,20.08
2022-10-05T10:37:37.367Z,20.05
2022-10-05T10:38:37.402Z,19.92
2022-10-05T10:39:37.439Z,19.90
2022-10-05T10:40:37.472Z,19.79
2022-10-05T10:41:37.509Z,19.79
2022-10-05T10:42:37.545Z,19.71
2022-10-05T10:43:37.582Z,19.68
2022-10-05T10:44:37.618Z,19.62
2022-10-05T10:45:37.654Z,19.67
2022-10-05T10:46:37.808Z,19.75
2022-10-05T10:47:37.727Z,19.57
2022-10-05T10:48:37.764Z,19.25
2022-10-05T10:49:37.822Z,19.31
2022-10-05T10:50:37.834Z,19.27
2022-10-05T10:51:37.872Z,19.53
2022-10-05T10:52:37.908Z,19.94
2022-10-05T10:53:37.952Z,20.40
2022-10-05T10:54:37.981Z,20.44
2022-10-05T10:55:38.017Z,20.58
2022-10-05T10:56:38.055Z,20.85
2022-10-05T10:57:38.088Z,21.33
2022-10-05T10:58:38.127Z,21.91
2022-10-05T10:59:38.160Z,21.93
2022-10-05T11:00:38.201Z,22.01
2022-10-05T11:01:38.295Z,21.91
2022-10-05T11:02:38.324Z,22.05
2022-10-05T11:03:38.307Z,22.02
2022-10-05T11:04:38.347Z,21.90
2022-10-05T11:05:38.381Z,21.56
2022-10-05T11:06:38.420Z,21.33
2022-10-05T11:07:38.459Z,21.12
2022-10-05T11:08:38.492Z,21.15
2022-10-05T11:09:38.533Z,21.24
2022-10-05T11:10:38.566Z,21.43
2022-10-05T11:11:38.601Z,21.68
2022-10-05T11:12:38.675Z,22.06
2022-10-05T11:13:38.676Z,22.31
2022-10-05T11:14:38.725Z,22.61
2022-10-05T11:15:38.829Z,22.67
2022-10-05T11:16:38.797Z,22.72
2022-10-05T11:17:38.830Z,22.91
2022-10-05T11:18:38.866Z,23.07
2022-10-05T11:19:40.783Z,23.26
2022-10-05T11:20:38.939Z,23.38
2022-10-05T11:21:38.975Z,23.84
2022-10-05T11:22:39.012Z,23.97
2022-10-05T11:23:39.271Z,24.09
2022-10-05T11:24:39.098Z,24.12
2022-10-05T11:25:39.139Z,24.33
2022-10-05T11:26:39.163Z,24.27
2022-10-05T11:27:39.203Z,24.33
2022-10-05T11:28:39.312Z,24.51
2022-10-05T11:29:39.276Z,24.61
2022-10-05T11:30:39.316Z,24.61
2022-10-05T11:31:39.403Z,24.24
2022-10-05T11:32:39.396Z,24.19
2022-10-05T11:33:39.432Z,24.18
2022-10-05T11:34:39.472Z,23.97
2022-10-05T11:35:39.512Z,23.93
2022-10-05T11:36:39.548Z,23.90
2022-10-05T11:37:39.585Z,23.93
2022-10-05T11:38:39.625Z,24.00
2022-10-05T11:39:39.671Z,23.99
2022-10-05T11:40:39.704Z,23.92
2022-10-05T11:41:39.743Z,23.86
2022-10-05T11:42:39.782Z,23.75
2022-10-05T11:43:39.819Z,23.60
2022-10-05T11:44:39.861Z,23.34
2022-10-05T11:45:39.898Z,23.31
2022-10-05T11:46:40.028Z,23.32
2022-10-05T11:47:39.975Z,23.42
2022-10-05T11:48:40.020Z,23.49
2022-10-05T11:49:40.055Z,23.62
2022-10-05T11:50:40.093Z,23.60
2022-10-05T11:51:40.132Z,23.69
2022-10-05T11:52:40.173Z,23.59
2022-10-05T11:53:40.212Z,23.52
2022-10-05T11:55:05.994Z,23.26
2022-10-05T11:55:40.290Z,23.21
2022-10-05T11:56:40.329Z,22.96
2022-10-05T11:57:40.452Z,22.67
2022-10-05T11:58:40.407Z,22.59
2022-10-05T11:59:40.445Z,22.42
2022-10-05T12:00:40.513Z,22.17
2022-10-05T12:01:40.521Z,22.04
2022-10-05T12:02:42.983Z,21.91
2022-10-05T12:03:40.709Z,21.90
2022-10-05T12:04:40.643Z,21.59
2022-10-05T12:05:40.680Z,21.70
2022-10-05T12:06:40.719Z,21.68
2022-10-05T12:07:40.757Z,21.68
2022-10-05T12:08:40.796Z,21.73
2022-10-05T12:09:40.833Z,21.75
2022-10-05T12:10:40.875Z,21.75
2022-10-05T12:11:40.908Z,21.89
2022-10-05T12:12:40.948Z,21.91
2022-10-05T12:13:40.988Z,21.99
2022-10-05T12:14:41.025Z,22.14
2022-10-05T12:15:41.139Z,22.09
2022-10-05T12:16:41.104Z,22.29
2022-10-05T12:17:41.136Z,22.36
2022-10-05T12:18:41.179Z,22.49
2022-10-05T12:19:41.215Z,22.60
2022-10-05T12:20:41.256Z,22.70
2022-10-05T12:21:41.293Z,22.88
2022-10-05T12:22:41.332Z,23.00
2022-10-05T12:23:41.403Z,23.15
2022-10-05T12:24:41.410Z,23.31
2022-10-05T12:25:41.444Z,23.59
2022-10-05T12:26:41.485Z,23.68
2022-10-05T12:27:41.523Z,23.69
2022-10-05T12:28:41.562Z,23.81
2022-10-05T12:29:41.631Z,24.19
2022-10-05T12:30:41.639Z,24.21
2022-10-05T12:31:41.706Z,24.39
2022-10-05T12:32:41.716Z,24.49
2022-10-05T12:33:41.753Z,24.70
2022-10-05T12:34:41.795Z,24.89
2022-10-05T12:35:48.442Z,24.87
2022-10-05T12:37:03.161Z,24.94
2022-10-05T12:37:41.927Z,24.99
2022-10-05T12:38:41.955Z,25.01
2022-10-05T12:39:41.990Z,25.19
2022-10-05T12:40:42.027Z,25.26
2022-10-05T12:41:42.064Z,25.23
2022-10-05T12:42:42.230Z,25.14
2022-10-05T12:43:42.163Z,25.12
2022-10-05T12:44:42.188Z,25.05
2022-10-05T12:45:42.383Z,25.11
2022-10-05T12:46:42.261Z,25.07
2022-10-05T12:47:42.300Z,25.22
2022-10-05T12:48:42.339Z,25.35
2022-10-05T12:49:42.378Z,25.48
2022-10-05T12:50:42.423Z,25.48
2022-10-05T12:51:42.471Z,25.61
2022-10-05T12:52:42.497Z,25.57
2022-10-05T12:53:42.541Z,25.48
2022-10-05T12:54:42.579Z,25.31
2022-10-05T12:55:42.616Z,25.26
2022-10-05T12:56:42.658Z,25.01
2022-10-05T12:57:42.696Z,24.87
2022-10-05T12:58:42.736Z,24.75
2022-10-05T12:59:42.773Z,24.70
2022-10-05T13:00:42.843Z,24.86
2022-10-05T13:01:42.932Z,24.92
2022-10-05T13:02:42.898Z,24.92
2022-10-05T13:03:42.935Z,24.82
2022-10-05T13:04:42.978Z,24.75
2022-10-05T13:05:43.014Z,24.77
2022-10-05T13:06:43.055Z,24.71
2022-10-05T13:07:43.093Z,24.56
2022-10-05T13:08:43.135Z,24.63
2022-10-05T13:09:43.173Z,24.64
2022-10-05T13:10:43.215Z,24.56
2022-10-05T13:11:43.253Z,24.49
2022-10-05T13:12:43.294Z,24.59
2022-10-05T13:13:43.337Z,24.63
2022-10-05T13:14:43.374Z,24.77
2022-10-05T13:15:43.414Z,24.77
2022-10-05T13:16:43.486Z,24.82
2022-10-05T13:17:43.498Z,24.77
2022-10-05T13:18:43.534Z,24.77
2022-10-05T13:19:43.573Z,24.99
2022-10-05T13:20:43.614Z,25.20
2022-10-05T13:21:43.652Z,25.22
2022-10-05T13:22:43.697Z,25.34
2022-10-05T13:23:43.738Z,25.59